createdAt,value
2022-11-29T00:00:49.297Z,63.10
2022-11-29T00:03:16.364Z,61.20
2022-11-29T00:05:43.098Z,60.60
2022-11-29T00:08:09.446Z,60.85
2022-11-29T00:10:37.713Z,62.50
2022-11-29T00:13:04.523Z,60.75
2022-11-29T00:15:30.888Z,61.13
2022-11-29T00:17:57.214Z,63.85
2022-11-29T00:20:23.561Z,64.25
2022-11-29T00:22:49.906Z,62.63
2022-11-29T00:25:16.417Z,59.72
2022-11-29T00:27:42.834Z,56.40
2022-11-29T00:30:09.704Z,60.20
2022-11-29T00:32:38.959Z,60.13
2022-11-29T00:35:09.714Z,57.88
2022-11-29T00:37:36.818Z,59.45
2022-11-29T00:40:04.527Z,60.65
2022-11-29T00:42:31.042Z,62.00
2022-11-29T00:44:57.465Z,54.72
2022-11-29T00:47:23.859Z,61.83
2022-11-29T00:49:50.160Z,57.05
2022-11-29T00:52:16.524Z,57.33
2022-11-29T00:54:43.123Z,55.08
2022-11-29T00:57:09.730Z,58.90
2022-11-29T00:59:36.030Z,54.05
2022-11-29T01:02:02.463Z,58.78
2022-11-29T01:04:28.968Z,59.25
2022-11-29T01:06:55.417Z,59.28
2022-11-29T01:09:21.727Z,57.17
2022-11-29T01:11:49.344Z,57.63
2022-11-29T01:14:16.293Z,56.28
2022-11-29T01:16:42.890Z,60.42
2022-11-29T01:19:09.434Z,60.17
2022-11-29T01:21:35.852Z,63.38
2022-11-29T01:24:02.433Z,66.30
2022-11-29T01:26:30.508Z,65.65
2022-11-29T01:28:58.472Z,62.10
2022-11-29T01:31:35.896Z,65.82
2022-11-29T01:34:04.227Z,64.47
2022-11-29T01:36:31.375Z,63.75
2022-11-29T01:39:02.592Z,65.72
2022-11-29T01:41:32.710Z,67.28
2022-11-29T01:44:12.777Z,66.50
2022-11-29T01:46:42.167Z,63.53
2022-11-29T01:49:12.745Z,69.60
2022-11-29T01:51:42.077Z,62.78
2022-11-29T01:54:10.704Z,68.28
2022-11-29T01:56:38.522Z,62.20
2022-11-29T01:59:11.074Z,65.15
2022-11-29T02:01:38.089Z,63.55
2022-11-29T02:04:05.737Z,61.88
2022-11-29T02:06:33.223Z,64.65
2022-11-29T02:08:59.578Z,65.72
2022-11-29T02:11:43.017Z,67.75
2022-11-29T02:14:43.122Z,66.32
2022-11-29T02:17:48.507Z,64.70
2022-11-29T02:20:30.097Z,67.53
2022-11-29T02:23:11.022Z,70.80
2022-11-29T02:25:57.250Z,72.90
2022-11-29T02:28:50.895Z,68.18
2022-11-29T02:31:55.969Z,68.53
2022-11-29T02:34:40.512Z,71.63
2022-11-29T02:37:35.174Z,73.03
2022-11-29T02:40:10.792Z,73.82
2022-11-29T02:43:02.057Z,76.75
2022-11-29T02:45:57.467Z,77.07
2022-11-29T02:48:40.253Z,71.78
2022-11-29T02:51:25.803Z,68.43
2022-11-29T02:54:26.438Z,74.45
2022-11-29T02:57:14.234Z,77.68
2022-11-29T02:59:47.703Z,74.65
2022-11-29T03:02:32.307Z,74.90
2022-11-29T03:08:13.082Z,85.30
2022-11-29T03:11:09.858Z,72.88
2022-11-29T03:13:52.470Z,78.10
2022-11-29T03:16:46.512Z,74.35
2022-11-29T03:19:36.771Z,87.97
2022-11-29T03:22:18.644Z,77.32
2022-11-29T03:25:01.967Z,75.85
2022-11-29T03:28:01.984Z,75.15
2022-11-29T03:30:32.050Z,75.03
2022-11-29T03:33:18.827Z,75.13
2022-11-29T03:36:03.914Z,74.88
2022-11-29T03:38:42.388Z,78.32
2022-11-29T03:41:34.085Z,72.72
2022-11-29T03:44:10.069Z,69.18
2022-11-29T03:46:52.298Z,72.07
2022-11-29T03:49:47.362Z,71.78
2022-11-29T03:52:26.706Z,75.90
2022-11-29T03:55:20.500Z,73.43
2022-11-29T03:58:05.451Z,77.63
2022-11-29T04:00:47.294Z,75.70
2022-11-29T04:04:05.082Z,85.30
2022-11-29T04:06:31.340Z,80.68
2022-11-29T04:09:31.876Z,74.15
2022-11-29T04:12:35.518Z,83.80
2022-11-29T04:15:23.263Z,76.55
2022-11-29T04:18:05.149Z,79.72
2022-11-29T04:20:48.018Z,78.45
2022-11-29T04:23:52.241Z,82.65
2022-11-29T04:26:30.851Z,75.03
2022-11-29T04:29:15.187Z,82.15
2022-11-29T04:31:59.699Z,72.85
2022-11-29T04:37:33.673Z,69.53
2022-11-29T04:40:11.659Z,72.60
2022-11-29T04:43:08.183Z,73.60
2022-11-29T04:46:03.159Z,78.72
2022-11-29T04:51:22.439Z,81.57
2022-11-29T04:54:20.126Z,81.65
2022-11-29T04:56:54.582Z,78.82
2022-11-29T04:59:33.834Z,74.20
2022-11-29T05:02:19.862Z,76.80
2022-11-29T05:05:29.964Z,79.07
2022-11-29T05:08:11.721Z,81.45
2022-11-29T05:11:16.349Z,77.53
2022-11-29T05:14:10.746Z,77.10
2022-11-29T05:17:04.827Z,83.32
2022-11-29T05:19:48.763Z,85.73
2022-11-29T05:22:28.584Z,81.03
2022-11-29T05:25:16.437Z,97.35
2022-11-29T05:27:48.814Z,84.72
2022-11-29T05:30:19.501Z,83.05
2022-11-29T05:33:01.335Z,79.80
2022-11-29T05:35:51.931Z,87.25
2022-11-29T05:38:55.378Z,88.25
2022-11-29T05:41:30.709Z,98.38
2022-11-29T05:44:35.650Z,86.55
2022-11-29T05:47:04.504Z,94.63
2022-11-29T05:49:43.124Z,84.60
2022-11-29T05:52:44.716Z,85.40
2022-11-29T05:55:14.058Z,86.30
2022-11-29T05:57:56.970Z,94.75
2022-11-29T06:00:24.439Z,86.45
2022-11-29T06:03:08.183Z,78.82
2022-11-29T06:05:51.753Z,73.72
2022-11-29T06:08:45.691Z,77.45
2022-11-29T06:11:25.535Z,91.03
2022-11-29T06:14:02.533Z,77.82
2022-11-29T06:16:44.254Z,80.47
2022-11-29T06:19:32.086Z,79.22
2022-11-29T06:22:16.841Z,84.30
2022-11-29T06:25:02.080Z,80.15
2022-11-29T06:27:50.266Z,80.13
2022-11-29T06:30:26.139Z,85.53
2022-11-29T06:33:08.642Z,88.95
2022-11-29T06:35:45.829Z,83.05
2022-11-29T06:38:25.678Z,86.45
2022-11-29T06:41:01.597Z,84.00
2022-11-29T06:43:29.106Z,84.95
2022-11-29T06:46:32.661Z,83.63
2022-11-29T06:49:23.180Z,80.13
2022-11-29T06:52:08.294Z,82.57
2022-11-29T06:55:01.199Z,87.78
2022-11-29T06:58:12.422Z,89.13
2022-11-29T07:01:16.496Z,80.00
2022-11-29T07:04:15.253Z,80.82
2022-11-29T07:06:41.994Z,82.57
2022-11-29T07:09:16.104Z,83.78
2022-11-29T07:11:42.970Z,83.03
2022-11-29T07:14:09.913Z,84.70
2022-11-29T07:16:58.661Z,84.30
2022-11-29T07:19:30.946Z,81.00
2022-11-29T07:22:36.236Z,81.60
2022-11-29T07:27:52.206Z,77.72
2022-11-29T07:30:55.623Z,82.80
2022-11-29T07:33:41.969Z,83.63
2022-11-29T07:36:18.259Z,80.47
2022-11-29T07:39:12.680Z,83.32
2022-11-29T07:42:23.563Z,81.45
2022-11-29T07:44:49.833Z,80.25
2022-11-29T07:47:16.172Z,81.97
2022-11-29T07:49:42.567Z,78.68
2022-11-29T07:52:12.564Z,81.85
2022-11-29T07:54:40.246Z,84.47
2022-11-29T07:57:06.579Z,89.18
2022-11-29T07:59:32.928Z,84.15
2022-11-29T08:01:59.393Z,81.00
2022-11-29T08:04:26.117Z,86.68
2022-11-29T08:06:52.442Z,82.57
2022-11-29T08:09:18.887Z,80.53
2022-11-29T08:11:45.319Z,83.97
2022-11-29T08:14:11.714Z,78.95
2022-11-29T08:16:38.286Z,78.13
2022-11-29T08:19:05.115Z,82.15
2022-11-29T08:21:31.466Z,81.95
2022-11-29T08:23:57.829Z,80.13
2022-11-29T08:26:28.280Z,84.80
2022-11-29T08:28:57.791Z,87.53
2022-11-29T08:31:24.356Z,87.63
2022-11-29T08:33:50.707Z,91.15
2022-11-29T08:36:19.847Z,81.45
2022-11-29T08:38:47.295Z,86.80
2022-11-29T08:41:16.455Z,83.35
2022-11-29T08:43:43.341Z,83.68
2022-11-29T08:46:15.138Z,80.88
2022-11-29T08:48:44.473Z,80.75
2022-11-29T08:51:17.585Z,81.70
2022-11-29T08:53:46.166Z,88.15
2022-11-29T08:57:04.569Z,82.10
2022-11-29T08:59:04.586Z,88.13
2022-11-29T09:01:31.311Z,84.38
2022-11-29T09:04:02.367Z,90.85
2022-11-29T09:06:32.282Z,87.63
2022-11-29T09:09:00.143Z,93.35
2022-11-29T09:11:29.297Z,94.35
2022-11-29T09:14:04.307Z,97.45
2022-11-29T09:16:34.525Z,100.10
2022-11-29T09:19:01.002Z,94.53
2022-11-29T09:21:38.404Z,101.65
2022-11-29T09:24:06.314Z,90.20
2022-11-29T09:26:35.218Z,90.13
2022-11-29T09:29:04.009Z,92.28
2022-11-29T09:31:32.183Z,94.00
2022-11-29T09:33:59.297Z,92.60
2022-11-29T09:36:29.073Z,86.30
2022-11-29T09:38:56.851Z,90.18
2022-11-29T09:42:00.962Z,88.20
2022-11-29T09:44:36.047Z,96.03
2022-11-29T09:47:28.780Z,89.30
2022-11-29T09:50:16.886Z,90.22
2022-11-29T09:53:20.981Z,91.93
2022-11-29T09:55:52.870Z,103.28
2022-11-29T09:58:23.040Z,103.32
2022-11-29T10:00:54.137Z,101.20
2022-11-29T10:03:32.796Z,106.47
2022-11-29T10:06:05.193Z,105.53
2022-11-29T10:08:48.042Z,103.35
2022-11-29T10:11:21.284Z,106.65
2022-11-29T10:13:52.448Z,104.78
2022-11-29T10:16:36.554Z,108.60
2022-11-29T10:19:21.842Z,111.32
2022-11-29T10:22:00.717Z,106.15
2022-11-29T10:24:29.491Z,112.35
2022-11-29T10:26:56.382Z,103.78
2022-11-29T10:29:23.471Z,100.20
2022-11-29T10:31:50.329Z,98.95
2022-11-29T10:34:22.614Z,96.82
2022-11-29T10:37:01.331Z,101.10
2022-11-29T10:39:39.638Z,91.43
2022-11-29T10:42:32.975Z,98.75
2022-11-29T10:45:00.205Z,90.88
2022-11-29T10:47:30.553Z,98.03
2022-11-29T10:49:57.378Z,94.85
2022-11-29T10:52:24.201Z,97.40
2022-11-29T10:54:55.680Z,86.07
2022-11-29T10:57:27.625Z,83.03
2022-11-29T11:00:10.532Z,86.75
2022-11-29T11:02:37.799Z,75.05
2022-11-29T11:05:13.152Z,78.45
2022-11-29T11:07:39.591Z,69.85
2022-11-29T11:10:21.989Z,71.05
2022-11-29T11:13:22.648Z,64.78
2022-11-29T11:15:49.105Z,66.70
2022-11-29T11:18:25.369Z,67.15
2022-11-29T11:20:59.096Z,65.72
2022-11-29T11:23:31.744Z,65.30
2022-11-29T11:26:02.198Z,66.07
2022-11-29T11:28:33.206Z,63.22
2022-11-29T11:31:05.564Z,64.75
2022-11-29T11:33:37.691Z,61.92
2022-11-29T11:36:19.172Z,62.20
2022-11-29T11:39:08.893Z,58.70
2022-11-29T11:41:59.508Z,61.70
2022-11-29T11:44:53.613Z,63.22
2022-11-29T11:47:27.222Z,61.58
2022-11-29T11:49:55.844Z,66.85
2022-11-29T11:52:29.137Z,64.10
2022-11-29T11:54:58.929Z,63.07
2022-11-29T11:57:26.624Z,61.90
2022-11-29T11:59:55.680Z,61.05
2022-11-29T12:02:33.184Z,64.93
2022-11-29T12:05:04.760Z,68.47
2022-11-29T12:08:06.809Z,70.00
2022-11-29T12:10:31.367Z,69.78
2022-11-29T12:12:59.637Z,73.88
2022-11-29T12:15:31.001Z,71.65
2022-11-29T12:18:12.452Z,67.88
2022-11-29T12:20:56.908Z,69.15
2022-11-29T12:23:33.011Z,74.22
2022-11-29T12:25:59.436Z,71.75
2022-11-29T12:28:35.601Z,63.90
2022-11-29T12:31:13.820Z,68.72
2022-11-29T12:33:55.191Z,65.38
2022-11-29T12:36:45.289Z,68.22
2022-11-29T12:39:30.079Z,66.70
2022-11-29T12:42:14.857Z,66.88
2022-11-29T12:45:03.492Z,64.03
2022-11-29T12:47:53.091Z,64.78
2022-11-29T12:50:34.643Z,61.08
2022-11-29T12:53:23.912Z,66.60
2022-11-29T12:56:13.528Z,62.40
2022-11-29T12:59:34.041Z,61.08
2022-11-29T13:02:46.253Z,67.05
2022-11-29T13:05:24.702Z,68.60
2022-11-29T13:08:09.702Z,63.08
2022-11-29T13:10:55.858Z,70.22
2022-11-29T13:13:39.791Z,68.78
2022-11-29T13:16:31.242Z,68.13
2022-11-29T13:19:24.797Z,66.13
2022-11-29T13:22:17.112Z,69.93
2022-11-29T13:24:59.414Z,73.47
2022-11-29T13:27:53.701Z,71.40
2022-11-29T13:30:20.324Z,73.88
2022-11-29T13:32:52.580Z,75.13
2022-11-29T13:35:31.136Z,73.35
2022-11-29T13:38:09.287Z,75.90
2022-11-29T13:40:56.642Z,78.32
2022-11-29T13:43:33.157Z,79.13
2022-11-29T13:46:25.841Z,78.35
2022-11-29T13:48:54.014Z,78.82
2022-11-29T13:51:41.367Z,78.55
2022-11-29T13:54:27.912Z,76.65
2022-11-29T13:57:09.516Z,76.75
2022-11-29T13:59:47.112Z,77.72
2022-11-29T14:02:40.877Z,76.25
2022-11-29T14:05:25.187Z,71.15
2022-11-29T14:08:23.743Z,75.43
2022-11-29T14:10:55.034Z,76.28
2022-11-29T14:13:27.870Z,72.55
2022-11-29T14:15:57.708Z,73.78
2022-11-29T14:19:10.153Z,73.13
2022-11-29T14:22:07.227Z,75.55
2022-11-29T14:24:37.777Z,75.68
2022-11-29T14:27:07.685Z,70.90
2022-11-29T14:29:54.426Z,74.03
2022-11-29T14:32:31.827Z,73.03
2022-11-29T14:35:12.481Z,73.97
2022-11-29T14:38:06.499Z,73.32
2022-11-29T14:40:45.006Z,71.70
2022-11-29T14:43:29.464Z,71.05
2022-11-29T14:46:20.914Z,67.90
2022-11-29T14:48:55.979Z,67.65
2022-11-29T14:51:39.056Z,71.18
2022-11-29T14:54:36.728Z,70.45
2022-11-29T14:57:47.845Z,72.57
2022-11-29T15:00:18.805Z,75.05
2022-11-29T15:03:00.212Z,73.72
2022-11-29T15:05:36.972Z,71.53
2022-11-29T15:08:14.838Z,71.75
2022-11-29T15:10:47.932Z,73.93
2022-11-29T15:13:21.744Z,77.35
2022-11-29T15:16:09.389Z,75.80
2022-11-29T15:19:16.001Z,76.50
2022-11-29T15:22:08.117Z,81.38
2022-11-29T15:25:00.214Z,77.40
2022-11-29T15:27:26.991Z,84.10
2022-11-29T15:29:53.431Z,79.38
2022-11-29T15:32:30.949Z,84.10
2022-11-29T15:34:58.446Z,86.88
2022-11-29T15:37:31.104Z,82.25
2022-11-29T15:40:20.856Z,86.82
2022-11-29T15:42:53.193Z,84.38
2022-11-29T15:45:27.458Z,81.32
2022-11-29T15:50:32.551Z,88.30
2022-11-29T15:53:06.832Z,97.05
2022-11-29T15:58:08.460Z,82.53
2022-11-29T16:00:36.479Z,78.78
2022-11-29T16:03:04.980Z,77.68
2022-11-29T16:05:34.933Z,78.30
2022-11-29T16:08:05.406Z,80.75
2022-11-29T16:10:36.836Z,74.13
2022-11-29T16:13:30.701Z,72.00
2022-11-29T16:16:13.121Z,69.72
2022-11-29T16:18:42.017Z,71.30
2022-11-29T16:21:21.587Z,72.97
2022-11-29T16:23:50.267Z,74.30
2022-11-29T16:26:31.929Z,73.55
2022-11-29T16:28:58.508Z,72.50
2022-11-29T16:31:34.862Z,71.80
2022-11-29T16:34:29.868Z,72.18
2022-11-29T16:39:46.267Z,73.63
2022-11-29T16:42:25.751Z,67.78
2022-11-29T16:45:02.983Z,67.90
2022-11-29T16:47:31.658Z,72.93
2022-11-29T16:50:14.480Z,68.75
2022-11-29T16:52:41.054Z,66.57
2022-11-29T16:55:09.649Z,64.80
2022-11-29T16:57:36.481Z,66.03
2022-11-29T17:00:10.453Z,68.50
2022-11-29T17:02:36.825Z,65.40
2022-11-29T17:05:03.384Z,66.20
2022-11-29T17:07:34.687Z,64.95
2022-11-29T17:10:01.551Z,67.32
2022-11-29T17:12:29.125Z,68.82
2022-11-29T17:14:55.532Z,71.22
2022-11-29T17:17:21.915Z,71.38
2022-11-29T17:19:48.303Z,66.45
2022-11-29T17:22:14.733Z,68.30
2022-11-29T17:24:46.397Z,63.80
2022-11-29T17:27:14.536Z,68.90
2022-11-29T17:29:40.864Z,69.60
2022-11-29T17:32:07.346Z,66.22
2022-11-29T17:34:33.784Z,68.78
2022-11-29T17:37:00.127Z,62.53
2022-11-29T17:39:26.572Z,67.15
2022-11-29T17:41:53.043Z,69.55
2022-11-29T17:44:20.725Z,69.47
2022-11-29T17:46:47.419Z,68.53
2022-11-29T17:49:13.853Z,67.72
2022-11-29T17:51:51.877Z,68.07
2022-11-29T17:54:18.964Z,64.00
2022-11-29T17:56:45.380Z,65.50
2022-11-29T17:59:11.798Z,73.40
2022-11-29T18:01:38.245Z,67.85
2022-11-29T18:04:06.074Z,65.25
2022-11-29T18:06:37.845Z,71.55
2022-11-29T18:09:05.973Z,67.28
2022-11-29T18:11:43.248Z,68.13
2022-11-29T18:14:15.406Z,65.32
2022-11-29T18:16:42.332Z,72.85
2022-11-29T18:19:11.963Z,74.72
2022-11-29T18:21:38.303Z,74.57
2022-11-29T18:24:06.509Z,70.78
2022-11-29T18:26:34.874Z,72.53
2022-11-29T18:29:01.321Z,66.05
2022-11-29T18:31:30.835Z,71.20
2022-11-29T18:33:59.610Z,67.07
2022-11-29T18:36:31.926Z,66.57
2022-11-29T18:39:01.253Z,67.65
2022-11-29T18:41:29.158Z,66.55
2022-11-29T18:44:08.080Z,64.95
2022-11-29T18:46:37.058Z,61.13
2022-11-29T18:49:08.199Z,59.65
2022-11-29T18:51:36.687Z,61.10
2022-11-29T18:54:04.416Z,63.20
2022-11-29T18:56:32.781Z,64.93
2022-11-29T18:59:03.645Z,67.20
2022-11-29T19:01:32.434Z,68.40
2022-11-29T19:04:00.491Z,66.65
2022-11-29T19:06:32.979Z,66.88
2022-11-29T19:09:06.348Z,67.22
2022-11-29T19:11:33.658Z,64.32
2022-11-29T19:14:03.852Z,64.93
2022-11-29T19:16:33.032Z,66.68
2022-11-29T19:19:00.334Z,73.13
2022-11-29T19:21:29.012Z,67.43
2022-11-29T19:23:57.791Z,59.08
2022-11-29T19:26:29.405Z,57.75
2022-11-29T19:28:56.447Z,56.53
2022-11-29T19:31:25.060Z,48.72
2022-11-29T19:33:52.709Z,47.90
2022-11-29T19:36:29.486Z,47.17
2022-11-29T19:38:57.257Z,47.75
2022-11-29T19:41:26.864Z,46.33
2022-11-29T19:43:55.903Z,48.63
2022-11-29T19:46:25.535Z,46.75
2022-11-29T19:49:06.583Z,48.40
2022-11-29T19:51:36.585Z,46.42
2022-11-29T19:54:18.289Z,52.85
2022-11-29T19:56:45.050Z,51.35
2022-11-29T19:59:11.381Z,52.35
2022-11-29T20:01:41.214Z,50.40
2022-11-29T20:04:20.246Z,57.85
2022-11-29T20:06:46.722Z,57.10
2022-11-29T20:09:14.030Z,59.67
2022-11-29T20:11:40.490Z,61.55
2022-11-29T20:14:08.080Z,59.70
2022-11-29T20:16:37.793Z,65.45
2022-11-29T20:19:09.727Z,66.07
2022-11-29T20:21:37.965Z,60.53
2022-11-29T20:24:06.529Z,64.88
2022-11-29T20:26:35.710Z,69.10
2022-11-29T20:29:03.175Z,67.50
2022-11-29T20:31:30.226Z,60.45
2022-11-29T20:33:57.443Z,58.70
2022-11-29T20:36:43.448Z,61.92
2022-11-29T20:39:35.214Z,60.28
2022-11-29T20:42:23.486Z,60.45
2022-11-29T20:44:55.680Z,61.15
2022-11-29T20:47:30.050Z,58.72
2022-11-29T20:49:57.260Z,66.28
2022-11-29T20:52:49.776Z,65.68
2022-11-29T20:55:16.175Z,66.65
2022-11-29T20:57:42.567Z,68.05
2022-11-29T21:00:12.306Z,74.57
2022-11-29T21:02:38.994Z,76.43
2022-11-29T21:05:06.162Z,76.95
2022-11-29T21:07:32.651Z,72.82
2022-11-29T21:10:01.332Z,74.75
2022-11-29T21:12:29.268Z,74.10
2022-11-29T21:14:56.134Z,74.60
2022-11-29T21:17:22.764Z,73.88
2022-11-29T21:19:49.431Z,76.53
2022-11-29T21:22:36.438Z,78.68
2022-11-29T21:25:35.093Z,74.82
2022-11-29T21:28:02.715Z,76.07
2022-11-29T21:30:29.239Z,74.20
2022-11-29T21:32:55.926Z,75.85
2022-11-29T21:35:22.237Z,75.85
2022-11-29T21:37:51.722Z,77.68
2022-11-29T21:40:18.090Z,79.32
2022-11-29T21:42:44.424Z,83.25
2022-11-29T21:45:15.351Z,79.55
2022-11-29T21:47:43.842Z,84.70
2022-11-29T21:50:11.657Z,84.43
2022-11-29T21:52:38.022Z,85.13
2022-11-29T21:55:05.138Z,89.10
2022-11-29T21:57:31.679Z,88.53
2022-11-29T21:59:58.005Z,88.80
2022-11-29T22:02:24.417Z,88.85
2022-11-29T22:04:50.831Z,98.57
2022-11-29T22:07:17.349Z,103.53
2022-11-29T22:09:43.817Z,116.20
2022-11-29T22:12:32.304Z,121.00
2022-11-29T22:14:56.526Z,124.65
2022-11-29T22:17:22.854Z,118.38
2022-11-29T22:19:49.269Z,131.50
2022-11-29T22:22:15.634Z,132.88
2022-11-29T22:24:41.978Z,133.75
2022-11-29T22:27:08.321Z,137.43
2022-11-29T22:29:34.665Z,130.27
2022-11-29T22:32:02.175Z,130.57
2022-11-29T22:34:28.608Z,133.18
2022-11-29T22:36:55.618Z,123.82
2022-11-29T22:39:22.546Z,119.03
2022-11-29T22:41:53.896Z,108.38
2022-11-29T22:44:21.445Z,105.93
2022-11-29T22:46:47.820Z,101.35
2022-11-29T22:49:14.219Z,103.85
2022-11-29T22:51:40.607Z,100.38
2022-11-29T22:54:09.313Z,96.50
2022-11-29T22:56:38.857Z,95.15
2022-11-29T22:59:05.793Z,100.47
2022-11-29T23:01:34.936Z,98.60
2022-11-29T23:04:04.174Z,104.10
2022-11-29T23:06:32.630Z,107.65
2022-11-29T23:09:10.573Z,105.25
2022-11-29T23:11:37.084Z,103.07
2022-11-29T23:14:03.952Z,103.18
2022-11-29T23:16:30.665Z,93.25
2022-11-29T23:18:58.736Z,100.10
2022-11-29T23:21:30.724Z,99.65
2022-11-29T23:23:59.937Z,107.68
2022-11-29T23:26:40.107Z,95.95
2022-11-29T23:29:11.605Z,99.45
2022-11-29T23:31:38.768Z,98.20
2022-11-29T23:34:05.402Z,94.40
2022-11-29T23:36:32.205Z,99.22
2022-11-29T23:38:58.619Z,94.15
2022-11-29T23:41:25.048Z,87.95
2022-11-29T23:43:51.494Z,88.40
2022-11-29T23:46:21.511Z,92.68
2022-11-29T23:48:48.501Z,98.85
2022-11-29T23:51:15.985Z,89.43
2022-11-29T23:53:42.863Z,90.82
2022-11-29T23:56:16.935Z,93.03
2022-11-29T23:58:43.859Z,95.80
